Sowerby Bridge, United Kingdom
Current Conditions -  °F | °C
As of 9:20 PM on Wednesday 26 Nov 2014 (Local Time) from EGNM Reporting Station
Moderate Fog Moderate Fog  
Wind Chill: 40°   Ceiling: 200
Heat Index: 43°   Visibility: 0.37mi
Dew Point: 43°   Wind: 5mph
Humidity: 100%   Direction: 40°NE
Pressure: 29.77"   Gusts: NA
Location:  53.71°N, 1.92°W
Report Text: EGNM 262120Z 04004KT 010V070 0600 R32/0900 FG SCT001 BKN002 06/06 Q1008
Loading
Personal Weather Stations






























Interactive Weather Map New forecast layout! Learn more

10-Day Weather Forecast

Advertisements
Track Severe Weather on mobile